| time (UTC) | temp F | wind direction | speed MPH | gust MPH | rain 1hr in | rain 24hr in | rain mn in | humidity % | barometer mb |
| 20260507201155 | 63 | 281 | 2.0 | 4.0 | 0.00 | 0.03 | 0.03 | 30 | 1005.3 |
| 20260507200651 | 64 | 325 | 4.0 | 4.0 | 0.00 | 0.03 | 0.03 | 30 | 1005.2 |
| 20260507200147 | 64 | 340 | 2.0 | 9.0 | 0.00 | 0.03 | 0.03 | 30 | 1005.3 |
| 20260507195643 | 63 | 209 | 0.0 | 3.0 | 0.00 | 0.03 | 0.03 | 29 | 1005.6 |
| 20260507195141 | 63 | 8 | 4.0 | 6.0 | 0.00 | 0.03 | 0.03 | 31 | 1005.6 |
| 20260507194637 | 64 | 204 | 3.0 | 6.0 | 0.00 | 0.03 | 0.03 | 29 | 1005.6 |
| 20260507194133 | 63 | 220 | 0.0 | 3.0 | 0.00 | 0.03 | 0.03 | 30 | 1005.5 |
| 20260507193630 | 64 | 14 | 4.0 | 4.0 | 0.00 | 0.03 | 0.03 | 29 | 1005.6 |
| 20260507193128 | 64 | 346 | 3.0 | 9.0 | 0.00 | 0.03 | 0.03 | 31 | 1005.5 |
| 20260507192623 | 64 | 212 | 1.0 | 4.0 | 0.00 | 0.03 | 0.03 | 30 | 1005.7 |
| 20260507192121 | 63 | 290 | 2.0 | 7.0 | 0.00 | 0.03 | 0.03 | 31 | 1005.7 |
| 20260507191616 | 63 | 281 | 1.0 | 6.0 | 0.00 | 0.03 | 0.03 | 30 | 1005.7 |
| 20260507191113 | 63 | 249 | 1.0 | 4.0 | 0.00 | 0.03 | 0.03 | 29 | 1005.9 |
| 20260507190610 | 64 | 265 | 2.0 | 7.0 | 0.00 | 0.03 | 0.03 | 30 | 1005.9 |
| 20260507190109 | 63 | 281 | 1.0 | 7.0 | 0.00 | 0.03 | 0.03 | 29 | 1005.9 |
| 20260507185607 | 65 | 243 | 1.0 | 4.0 | 0.00 | 0.03 | 0.03 | 30 | 1005.7 |
| 20260507185103 | 65 | 217 | 1.0 | 4.0 | 0.00 | 0.03 | 0.03 | 29 | 1005.8 |
| 20260507184601 | 65 | 191 | 5.0 | 7.0 | 0.00 | 0.03 | 0.03 | 28 | 1006.0 |
| 20260507184059 | 65 | 320 | 2.0 | 4.0 | 0.00 | 0.03 | 0.03 | 32 | 1005.9 |
| 20260507183555 | 64 | 82 | 1.0 | 2.0 | 0.00 | 0.03 | 0.03 | 33 | 1005.7 |
| 20260507183052 | 64 | 352 | 2.0 | 4.0 | 0.00 | 0.03 | 0.03 | 29 | 1005.9 |
| 20260507182548 | 63 | 226 | 1.0 | 7.0 | 0.00 | 0.03 | 0.03 | 30 | 1005.9 |
| 20260507182044 | 65 | 216 | 2.0 | 3.0 | 0.00 | 0.03 | 0.03 | 31 | 1006.0 |
| 20260507181542 | 63 | 306 | 4.0 | 6.0 | 0.00 | 0.03 | 0.03 | 30 | 1005.9 |
| 20260507181037 | 63 | 340 | 6.0 | 8.0 | 0.00 | 0.03 | 0.03 | 31 | 1006.0 |
| 20260507180534 | 63 | 323 | 1.0 | 4.0 | 0.00 | 0.03 | 0.03 | 33 | 1006.1 |
| 20260507180031 | 63 | 43 | 2.0 | 7.0 | 0.00 | 0.03 | 0.03 | 31 | 1006.3 |
| 20260507175527 | 63 | 17 | 6.0 | 10.0 | 0.00 | 0.03 | 0.03 | 30 | 1006.1 |
| 20260507175025 | 62 | 39 | 2.0 | 3.0 | 0.00 | 0.03 | 0.03 | 33 | 1006.2 |
| 20260507174522 | 63 | 351 | 1.0 | 7.0 | 0.00 | 0.03 | 0.03 | 33 | 1005.9 |
| 20260507174020 | 63 | 340 | 4.0 | 4.0 | 0.00 | 0.03 | 0.03 | 33 | 1006.1 |
| 20260507173516 | 63 | 31 | 3.0 | 4.0 | 0.00 | 0.03 | 0.03 | 35 | 1005.8 |
| 20260507173014 | 64 | 294 | 1.0 | 3.0 | 0.00 | 0.03 | 0.03 | 35 | 1005.9 |
| 20260507172509 | 63 | 23 | 4.0 | 6.0 | 0.00 | 0.03 | 0.03 | 36 | 1006.2 |
| 20260507172006 | 63 | 330 | 2.0 | 4.0 | 0.00 | 0.03 | 0.03 | 34 | 1006.3 |
| 20260507171502 | 62 | 209 | 1.0 | 6.0 | 0.00 | 0.03 | 0.03 | 36 | 1006.3 |
| 20260507171000 | 62 | 299 | 6.0 | 8.0 | 0.00 | 0.03 | 0.03 | 36 | 1006.7 |
| 20260507170456 | 60 | 288 | 1.0 | 4.0 | 0.00 | 0.03 | 0.03 | 39 | 1006.5 |
| 20260507165952 | 62 | 43 | 2.0 | 7.0 | 0.00 | 0.03 | 0.03 | 39 | 1006.6 |
| 20260507165448 | 62 | 268 | 4.0 | 7.0 | 0.00 | 0.03 | 0.03 | 40 | 1006.6 |
| 20260507164944 | 61 | 165 | 0.0 | 8.0 | 0.00 | 0.03 | 0.03 | 44 | 1006.8 |
| 20260507164441 | 62 | 222 | 2.0 | 6.0 | 0.00 | 0.03 | 0.03 | 46 | 1006.7 |
| 20260507163938 | 60 | 42 | 4.0 | 4.0 | 0.00 | 0.03 | 0.03 | 50 | 1006.7 |
| 20260507163436 | 60 | 225 | 3.0 | 7.0 | 0.00 | 0.03 | 0.03 | 52 | 1006.8 |
| 20260507162933 | 62 | 148 | 1.0 | 4.0 | 0.00 | 0.03 | 0.03 | 51 | 1006.8 |
| 20260507162428 | 62 | 226 | 2.0 | 14.0 | 0.00 | 0.03 | 0.03 | 49 | 1006.9 |
| 20260507161925 | 61 | 302 | 1.0 | 4.0 | 0.00 | 0.03 | 0.03 | 52 | 1007.0 |
| 20260507161421 | 60 | 284 | 3.0 | 4.0 | 0.00 | 0.03 | 0.03 | 52 | 1006.8 |
| 20260507160918 | 60 | 243 | 3.0 | 4.0 | 0.00 | 0.03 | 0.03 | 53 | 1006.8 |
| 20260507160414 | 60 | 152 | 2.0 | 6.0 | 0.00 | 0.03 | 0.03 | 52 | 1006.9 |
| 20260507155910 | 61 | 17 | 4.0 | 4.0 | 0.00 | 0.03 | 0.03 | 53 | 1007.1 |
| 20260507155406 | 60 | 357 | 2.0 | 4.0 | 0.00 | 0.03 | 0.03 | 53 | 1007.1 |
| 20260507154903 | 60 | 94 | 1.0 | 3.0 | 0.00 | 0.03 | 0.03 | 53 | 1007.0 |
| 20260507154400 | 60 | 174 | 2.0 | 6.0 | 0.00 | 0.03 | 0.03 | 53 | 1007.0 |
| 20260507153951 | 60 | 175 | 6.0 | 9.0 | 0.00 | 0.03 | 0.03 | 54 | 1007.0 |
| 20260507153857 | 60 | 175 | 6.0 | 9.0 | 0.00 | 0.03 | 0.03 | 54 | 1007.0 |
| 20260507153354 | 60 | 206 | 1.0 | 4.0 | 0.00 | 0.03 | 0.03 | 56 | 1007.1 |
| 20260507153217 | 61 | 285 | 1.0 | 3.0 | 0.00 | 0.03 | 0.03 | 51 | 1007.2 |
| 20260507152850 | 61 | 285 | 1.0 | 3.0 | 0.00 | 0.03 | 0.03 | 51 | 1007.2 |
| 20260507152602 | 60 | 261 | 2.0 | 3.0 | 0.00 | 0.03 | 0.03 | 51 | 1007.3 |
| 20260507152347 | 61 | 293 | 2.0 | 6.0 | 0.00 | 0.03 | 0.03 | 51 | 1007.4 |
| 20260507151843 | 60 | 261 | 2.0 | 3.0 | 0.00 | 0.03 | 0.03 | 51 | 1007.3 |
| 20260507151339 | 59 | 238 | 0.0 | 6.0 | 0.00 | 0.03 | 0.03 | 52 | 1007.5 |
| 20260507150836 | 61 | 337 | 4.0 | 4.0 | 0.00 | 0.03 | 0.03 | 49 | 1007.5 |
| 20260507150333 | 60 | 294 | 2.0 | 6.0 | 0.00 | 0.03 | 0.03 | 50 | 1007.6 |
| 20260507145828 | 61 | 348 | 4.0 | 7.0 | 0.00 | 0.03 | 0.03 | 49 | 1007.7 |
| 20260507145320 | 61 | 57 | 1.0 | 2.0 | 0.00 | 0.03 | 0.03 | 48 | 1007.6 |
| 20260507144817 | 62 | 205 | 6.0 | 8.0 | 0.00 | 0.03 | 0.03 | 47 | 1007.8 |
| 20260507144314 | 60 | 343 | 3.0 | 4.0 | 0.00 | 0.03 | 0.03 | 48 | 1007.7 |
| 20260507143810 | 59 | 194 | 7.0 | 8.0 | 0.00 | 0.03 | 0.03 | 49 | 1007.7 |
| 20260507143308 | 60 | 51 | 3.0 | 4.0 | 0.00 | 0.03 | 0.03 | 51 | 1007.6 |
| 20260507142804 | 60 | 135 | 0.0 | 1.0 | 0.00 | 0.03 | 0.03 | 49 | 1007.6 |
| 20260507142300 | 60 | 207 | 1.0 | 3.0 | 0.00 | 0.03 | 0.03 | 50 | 1007.7 |
| 20260507141757 | 58 | 68 | 0.0 | 3.0 | 0.00 | 0.03 | 0.03 | 54 | 1007.8 |
| 20260507141254 | 59 | 309 | 4.0 | 6.0 | 0.00 | 0.03 | 0.03 | 51 | 1007.6 |
| 20260507140750 | 58 | 238 | 2.0 | 3.0 | 0.00 | 0.03 | 0.03 | 54 | 1007.6 |
| 20260507140248 | 60 | 33 | 3.0 | 4.0 | 0.00 | 0.03 | 0.03 | 52 | 1007.7 |
| 20260507135745 | 60 | 198 | 1.0 | 3.0 | 0.00 | 0.03 | 0.03 | 52 | 1007.6 |
| 20260507135242 | 59 | 46 | 1.0 | 2.0 | 0.00 | 0.03 | 0.03 | 56 | 1007.6 |
| 20260507134738 | 58 | 37 | 1.0 | 3.0 | 0.00 | 0.03 | 0.03 | 60 | 1007.5 |
| 20260507134235 | 58 | 122 | 0.0 | 2.0 | 0.00 | 0.03 | 0.03 | 58 | 1007.6 |
| 20260507133730 | 57 | 203 | 3.0 | 3.0 | 0.00 | 0.03 | 0.03 | 60 | 1007.8 |
| 20260507133227 | 56 | 74 | 1.0 | 3.0 | 0.00 | 0.03 | 0.03 | 62 | 1007.8 |
| 20260507132725 | 55 | 350 | 2.0 | 3.0 | 0.00 | 0.03 | 0.03 | 60 | 1008.0 |
| 20260507132222 | 55 | 56 | 1.0 | 2.0 | 0.00 | 0.03 | 0.03 | 61 | 1008.0 |
| 20260507131718 | 56 | 49 | 2.0 | 4.0 | 0.00 | 0.03 | 0.03 | 61 | 1007.9 |
| 20260507131216 | 55 | 28 | 4.0 | 4.0 | 0.00 | 0.03 | 0.03 | 60 | 1008.0 |
| 20260507130712 | 56 | 31 | 2.0 | 6.0 | 0.00 | 0.03 | 0.03 | 61 | 1008.1 |
| 20260507130210 | 55 | 65 | 0.0 | 4.0 | 0.00 | 0.03 | 0.03 | 62 | 1008.3 |
| 20260507125708 | 55 | 49 | 2.0 | 3.0 | 0.00 | 0.03 | 0.03 | 64 | 1008.2 |
| 20260507125206 | 56 | 222 | 3.0 | 4.0 | 0.00 | 0.03 | 0.03 | 65 | 1008.2 |
| 20260507124702 | 55 | 139 | 0.0 | 1.0 | 0.00 | 0.03 | 0.03 | 65 | 1008.2 |
| 20260507124159 | 55 | 155 | 0.0 | 1.0 | 0.00 | 0.03 | 0.03 | 70 | 1008.1 |
| 20260507123658 | 53 | 189 | 0.0 | 2.0 | 0.00 | 0.03 | 0.03 | 72 | 1008.1 |
| 20260507123155 | 53 | 320 | 1.0 | 3.0 | 0.00 | 0.03 | 0.03 | 72 | 1008.1 |
| 20260507122650 | 52 | 319 | 0.0 | 2.0 | 0.00 | 0.03 | 0.03 | 74 | 1008.3 |
| 20260507122146 | 53 | 208 | 0.0 | 1.0 | 0.00 | 0.03 | 0.03 | 75 | 1008.2 |
| 20260507121642 | 53 | 192 | 0.0 | 3.0 | 0.00 | 0.03 | 0.03 | 74 | 1008.2 |
| 20260507121138 | 52 | 26 | 1.0 | 3.0 | 0.00 | 0.03 | 0.03 | 76 | 1008.1 |
| 20260507120634 | 52 | 238 | 2.0 | 2.0 | 0.00 | 0.03 | 0.03 | 77 | 1008.2 |
| 20260507120131 | 52 | 174 | 0.0 | 2.0 | 0.00 | 0.03 | 0.03 | 77 | 1008.2 |
| 20260507115627 | 51 | 242 | 1.0 | 2.0 | 0.00 | 0.03 | 0.03 | 78 | 1008.3 |
| 20260507115123 | 51 | 283 | 2.0 | 2.0 | 0.00 | 0.03 | 0.03 | 79 | 1008.1 |
| 20260507114619 | 51 | 164 | 0.0 | 0.0 | 0.00 | 0.03 | 0.03 | 80 | 1007.9 |
| 20260507114116 | 51 | 240 | 0.0 | 1.0 | 0.00 | 0.03 | 0.03 | 81 | 1008.3 |
| 20260507113614 | 50 | 237 | 0.0 | 1.0 | 0.00 | 0.03 | 0.03 | 81 | 1008.1 |
| 20260507113111 | 50 | 237 | 1.0 | 2.0 | 0.00 | 0.03 | 0.03 | 81 | 1008.1 |
| 20260507112609 | 50 | 166 | 0.0 | 0.0 | 0.00 | 0.03 | 0.03 | 84 | 1007.9 |
| 20260507112105 | 50 | 80 | 0.0 | 1.0 | 0.00 | 0.03 | 0.03 | 83 | 1007.9 |
| 20260507111602 | 49 | 80 | 1.0 | 1.0 | 0.00 | 0.03 | 0.03 | 84 | 1007.8 |
| 20260507111059 | 49 | 113 | 0.0 | 0.0 | 0.00 | 0.03 | 0.03 | 85 | 1007.8 |
| 20260507110555 | 49 | 113 | 0.0 | 0.0 | 0.00 | 0.03 | 0.03 | 85 | 1008.0 |
| 20260507110052 | 49 | 136 | 0.0 | 0.0 | 0.00 | 0.03 | 0.03 | 84 | 1008.1 |
| 20260507105548 | 49 | 241 | 0.0 | 2.0 | 0.00 | 0.03 | 0.03 | 83 | 1008.1 |
| 20260507105044 | 49 | 269 | 1.0 | 2.0 | 0.00 | 0.03 | 0.03 | 85 | 1008.1 |
| 20260507104542 | 49 | 237 | 1.0 | 2.0 | 0.00 | 0.03 | 0.03 | 86 | 1007.7 |
| 20260507104038 | 49 | 296 | 0.0 | 2.0 | 0.00 | 0.03 | 0.03 | 88 | 1007.5 |
| 20260507103534 | 48 | 253 | 1.0 | 1.0 | 0.00 | 0.03 | 0.03 | 88 | 1007.6 |
| 20260507103031 | 48 | 197 | 0.0 | 1.0 | 0.00 | 0.03 | 0.03 | 90 | 1007.6 |
| 20260507102528 | 49 | 90 | 0.0 | 1.0 | 0.00 | 0.03 | 0.03 | 91 | 1007.2 |
| 20260507102024 | 49 | 90 | 0.0 | 1.0 | 0.00 | 0.03 | 0.03 | 91 | 1007.0 |
| 20260507101520 | 49 | 57 | 0.0 | 1.0 | 0.00 | 0.03 | 0.03 | 91 | 1007.6 |
| 20260507101016 | 48 | 219 | 0.0 | 0.0 | 0.00 | 0.03 | 0.03 | 92 | 1007.6 |
| 20260507100514 | 48 | 188 | 1.0 | 1.0 | 0.00 | 0.03 | 0.03 | 92 | 1007.1 |
| 20260507100012 | 49 | 323 | 2.0 | 2.0 | 0.00 | 0.03 | 0.03 | 92 | 1007.0 |
| 20260507095509 | 49 | 267 | 1.0 | 2.0 | 0.00 | 0.03 | 0.03 | 92 | 1007.3 |
| 20260507095005 | 49 | 254 | 0.0 | 0.0 | 0.00 | 0.03 | 0.03 | 92 | 1007.4 |
| 20260507094502 | 49 | 211 | 0.0 | 0.0 | 0.05 | 0.03 | 0.03 | 91 | 1007.4 |
| 20260507093959 | 49 | 201 | 0.0 | 0.0 | 0.05 | 0.03 | 0.03 | 91 | 1007.5 |
| 20260507093456 | 49 | 233 | 1.0 | 2.0 | 0.00 | 0.02 | 0.02 | 91 | 1007.4 |
| 20260507092955 | 49 | 299 | 2.0 | 2.0 | 0.00 | 0.02 | 0.02 | 91 | 1007.2 |
| 20260507092450 | 49 | 245 | 1.0 | 1.0 | 0.00 | 0.02 | 0.02 | 90 | 1007.4 |
| 20260507091942 | 49 | 223 | 0.0 | 0.0 | 0.00 | 0.02 | 0.02 | 90 | 1007.4 |
| 20260507091439 | 49 | 320 | 0.0 | 1.0 | 0.00 | 0.02 | 0.02 | 89 | 1007.8 |
| 20260507090934 | 49 | 293 | 1.0 | 1.0 | 0.00 | 0.02 | 0.02 | 90 | 1007.8 |
| 20260507090430 | 50 | 194 | 0.0 | 0.0 | 0.00 | 0.02 | 0.02 | 90 | 1007.6 |
| 20260507085927 | 50 | 200 | 0.0 | 0.0 | 0.00 | 0.02 | 0.02 | 89 | 1007.5 |
| 20260507085424 | 50 | 219 | 0.0 | 0.0 | 0.00 | 0.02 | 0.02 | 90 | 1007.5 |
| 20260507084921 | 49 | 353 | 1.0 | 3.0 | 0.00 | 0.02 | 0.02 | 91 | 1007.6 |
| 20260507084418 | 50 | 83 | 2.0 | 2.0 | 0.00 | 0.02 | 0.02 | 92 | 1007.2 |
| 20260507083915 | 50 | 271 | 2.0 | 2.0 | 0.00 | 0.02 | 0.02 | 92 | 1007.5 |
| 20260507083412 | 50 | 291 | 1.0 | 2.0 | 0.00 | 0.02 | 0.02 | 92 | 1007.1 |
| 20260507082908 | 50 | 286 | 1.0 | 1.0 | 0.00 | 0.02 | 0.02 | 92 | 1007.0 |
| 20260507082404 | 50 | 285 | 0.0 | 0.0 | 0.00 | 0.02 | 0.02 | 92 | 1007.1 |
| 20260507081901 | 50 | 103 | 1.0 | 1.0 | 0.00 | 0.02 | 0.02 | 92 | 1006.8 |
| 20260507081357 | 50 | 104 | 1.0 | 1.0 | 0.00 | 0.02 | 0.02 | 92 | 1007.1 |
| 20260507080854 | 50 | 105 | 0.0 | 0.0 | 0.00 | 0.02 | 0.02 | 91 | 1007.1 |
| 20260507080350 | 50 | 219 | 1.0 | 1.0 | 0.00 | 0.02 | 0.02 | 90 | 1007.5 |
| 20260507075846 | 51 | 207 | 0.0 | 0.0 | 0.07 | 0.02 | 0.02 | 89 | 1007.5 |
| 20260507075342 | 51 | 298 | 0.0 | 2.0 | 0.07 | 0.02 | 0.02 | 88 | 1007.0 |
| 20260507074838 | 51 | 1 | 1.0 | 4.0 | 0.00 | 0.01 | 0.01 | 87 | 1007.0 |
| 20260507074336 | 51 | 203 | 2.0 | 3.0 | 0.00 | 0.01 | 0.01 | 87 | 1007.3 |
| 20260507073833 | 51 | 297 | 2.0 | 3.0 | 0.00 | 0.01 | 0.01 | 88 | 1007.0 |
| 20260507073329 | 51 | 198 | 0.0 | 3.0 | 0.00 | 0.01 | 0.01 | 88 | 1006.9 |
| 20260507072827 | 51 | 334 | 3.0 | 4.0 | 0.00 | 0.01 | 0.01 | 88 | 1006.8 |
| 20260507072324 | 52 | 195 | 0.0 | 1.0 | 0.00 | 0.01 | 0.01 | 89 | 1006.7 |
| 20260507071821 | 51 | 280 | 4.0 | 4.0 | 0.00 | 0.01 | 0.01 | 90 | 1006.6 |
| 20260507071318 | 51 | 279 | 1.0 | 2.0 | 0.00 | 0.01 | 0.01 | 92 | 1006.7 |
| 20260507070815 | 51 | 226 | 0.0 | 0.0 | 0.00 | 0.01 | 0.01 | 93 | 1006.8 |
| 20260507070312 | 52 | 225 | 0.0 | 0.0 | 0.00 | 0.01 | 0.01 | 93 | 1006.5 |
| 20260507065809 | 52 | 116 | 0.0 | 0.0 | 0.00 | 0.01 | 0.01 | 93 | 1006.3 |
| 20260507065306 | 52 | 169 | 0.0 | 0.0 | 0.00 | 0.01 | 0.01 | 93 | 1006.6 |
| 20260507064803 | 52 | 171 | 0.0 | 0.0 | 0.00 | 0.01 | 0.01 | 93 | 1006.5 |
| 20260507064301 | 52 | 181 | 0.0 | 2.0 | 0.00 | 0.01 | 0.01 | 93 | 1006.7 |
| 20260507063759 | 51 | 199 | 0.0 | 0.0 | 0.00 | 0.01 | 0.01 | 92 | 1006.5 |
| 20260507063255 | 51 | 183 | 0.0 | 0.0 | 0.00 | 0.01 | 0.01 | 92 | 1006.6 |
| 20260507062752 | 52 | 183 | 0.0 | 0.0 | 0.00 | 0.01 | 0.01 | 92 | 1006.3 |
| 20260507062249 | 52 | 186 | 0.0 | 0.0 | 0.00 | 0.01 | 0.01 | 92 | 1006.3 |
| 20260507061747 | 52 | 139 | 0.0 | 0.0 | 0.00 | 0.01 | 0.01 | 93 | 1006.3 |
| 20260507061245 | 52 | 103 | 0.0 | 0.0 | 0.00 | 0.01 | 0.01 | 94 | 1006.3 |
| 20260507060743 | 52 | 132 | 0.0 | 0.0 | 0.00 | 0.01 | 0.01 | 94 | 1006.4 |
| 20260507060239 | 52 | 231 | 0.0 | 1.0 | 0.00 | 0.01 | 0.01 | 94 | 1006.5 |
| 20260507055735 | 52 | 177 | 0.0 | 1.0 | 0.00 | 0.01 | 0.01 | 93 | 1006.6 |
| 20260507055231 | 52 | 207 | 0.0 | 1.0 | 0.00 | 0.01 | 0.01 | 93 | 1006.7 |
| 20260507054727 | 52 | 234 | 0.0 | 2.0 | 0.00 | 0.01 | 0.01 | 94 | 1006.8 |
| 20260507054224 | 53 | 35 | 0.0 | 2.0 | 0.00 | 0.01 | 0.01 | 95 | 1006.8 |
| 20260507053722 | 53 | 273 | 1.0 | 2.0 | 0.00 | 0.01 | 0.01 | 96 | 1006.6 |
| 20260507053219 | 54 | 186 | 0.0 | 2.0 | 0.00 | 0.01 | 0.01 | 96 | 1006.8 |
| 20260507052718 | 54 | 278 | 0.0 | 0.0 | 0.00 | 0.01 | 0.01 | 96 | 1006.7 |
| 20260507052214 | 54 | 240 | 1.0 | 2.0 | 0.00 | 0.01 | 0.01 | 96 | 1006.4 |
| 20260507051712 | 55 | 227 | 1.0 | 2.0 | 0.00 | 0.01 | 0.01 | 96 | 1006.5 |
| 20260507051209 | 55 | 294 | 1.0 | 2.0 | 0.00 | 0.01 | 0.01 | 96 | 1006.7 |
| 20260507050705 | 55 | 43 | 2.0 | 2.0 | 0.00 | 0.01 | 0.01 | 96 | 1006.7 |
| 20260507050202 | 56 | 73 | 0.0 | 3.0 | 0.00 | 0.01 | 0.01 | 96 | 1006.9 |
| 20260507045659 | 56 | 344 | 1.0 | 6.0 | 0.00 | 0.01 | 0.01 | 96 | 1007.0 |
| 20260507045156 | 56 | 131 | 1.0 | 2.0 | 0.00 | 0.01 | 0.01 | 96 | 1006.7 |
| 20260507044652 | 56 | 217 | 0.0 | 0.0 | 0.00 | 0.01 | 0.01 | 96 | 1006.6 |
| 20260507044149 | 57 | 206 | 0.0 | 0.0 | 0.00 | 0.01 | 0.01 | 96 | 1006.4 |
| 20260507043645 | 57 | 209 | 0.0 | 1.0 | 0.00 | 0.01 | 0.01 | 95 | 1006.5 |
| 20260507043142 | 57 | 244 | 1.0 | 4.0 | 0.00 | 0.01 | 0.01 | 95 | 1006.6 |
| 20260507042639 | 57 | 192 | 2.0 | 2.0 | 0.00 | 0.01 | 0.01 | 95 | 1006.2 |
| 20260507042134 | 57 | 5 | 3.0 | 6.0 | 0.05 | 0.01 | 0.01 | 95 | 1006.3 |
| 20260507041631 | 58 | 215 | 1.0 | 4.0 | 0.00 | 0.00 | 0.00 | 95 | 1006.3 |
| 20260507041127 | 58 | 220 | 1.0 | 3.0 | 0.00 | 0.00 | 0.00 | 96 | 1006.4 |
| 20260507040625 | 58 | 188 | 0.0 | 1.0 | 0.00 | 0.00 | 0.00 | 96 | 1006.5 |
| 20260507040121 | 58 | 206 | 0.0 | 0.0 | 0.00 | 0.00 | 0.00 | 97 | 1006.4 |
| 20260507035617 | 58 | 183 | 3.0 | 3.0 | 0.00 | 0.23 | 0.23 | 97 | 1006.5 |
| 20260507035113 | 59 | 207 | 0.0 | 2.0 | 0.00 | 0.23 | 0.23 | 97 | 1006.4 |
| 20260507034610 | 59 | 35 | 0.0 | 0.0 | 0.00 | 0.23 | 0.23 | 97 | 1006.2 |
| 20260507034108 | 59 | 149 | 1.0 | 3.0 | 0.00 | 0.23 | 0.23 | 97 | 1006.2 |
| 20260507033606 | 59 | 181 | 0.0 | 1.0 | 0.00 | 0.23 | 0.23 | 97 | 1006.2 |
| 20260507033103 | 59 | 205 | 5.0 | 7.0 | 0.00 | 0.23 | 0.23 | 98 | 1005.9 |
| 20260507032600 | 59 | 248 | 1.0 | 2.0 | 0.00 | 0.23 | 0.23 | 97 | 1005.8 |
| 20260507032056 | 59 | 184 | 3.0 | 7.0 | 0.00 | 0.23 | 0.23 | 98 | 1005.8 |
| 20260507031552 | 59 | 181 | 0.0 | 2.0 | 0.00 | 0.23 | 0.23 | 98 | 1005.7 |
| 20260507031050 | 59 | 188 | 2.0 | 4.0 | 0.00 | 0.23 | 0.23 | 98 | 1005.6 |
| 20260507030546 | 59 | 178 | 1.0 | 9.0 | 0.00 | 0.23 | 0.23 | 98 | 1005.4 |
| 20260507030044 | 59 | 232 | 0.0 | 3.0 | 0.00 | 0.23 | 0.23 | 98 | 1005.4 |
| 20260507025541 | 59 | 141 | 2.0 | 3.0 | 0.00 | 0.23 | 0.23 | 98 | 1005.6 |
| 20260507025038 | 59 | 185 | 1.0 | 7.0 | 0.00 | 0.23 | 0.23 | 98 | 1005.4 |
| 20260507024536 | 59 | 202 | 1.0 | 2.0 | 0.00 | 0.23 | 0.23 | 98 | 1005.6 |
| 20260507024032 | 59 | 168 | 3.0 | 7.0 | 0.00 | 0.23 | 0.23 | 98 | 1005.8 |
| 20260507023528 | 59 | 175 | 1.0 | 3.0 | 0.00 | 0.23 | 0.23 | 98 | 1005.7 |
| 20260507023026 | 59 | 149 | 1.0 | 7.0 | 0.00 | 0.23 | 0.23 | 98 | 1005.7 |
| 20260507022523 | 59 | 196 | 2.0 | 4.0 | 0.00 | 0.23 | 0.23 | 98 | 1005.6 |
| 20260507022018 | 59 | 219 | 3.0 | 8.0 | 0.00 | 0.23 | 0.23 | 98 | 1005.6 |
| 20260507021514 | 59 | 188 | 1.0 | 6.0 | 0.00 | 0.23 | 0.23 | 98 | 1005.6 |
| 20260507021011 | 59 | 194 | 1.0 | 4.0 | 0.00 | 0.23 | 0.23 | 98 | 1005.6 |
| 20260507020508 | 59 | 222 | 1.0 | 6.0 | 0.00 | 0.23 | 0.23 | 98 | 1005.8 |
| 20260507020005 | 59 | 166 | 1.0 | 2.0 | 0.00 | 0.23 | 0.23 | 98 | 1006.0 |
| 20260507015503 | 59 | 271 | 0.0 | 1.0 | 0.00 | 0.23 | 0.23 | 98 | 1006.0 |
| 20260507015000 | 59 | 151 | 0.0 | 4.0 | 0.00 | 0.23 | 0.23 | 98 | 1005.9 |
| 20260507014457 | 59 | 145 | 2.0 | 4.0 | 0.00 | 0.23 | 0.23 | 98 | 1005.8 |
| 20260507013953 | 59 | 173 | 0.0 | 2.0 | 0.00 | 0.23 | 0.23 | 98 | 1006.0 |
| 20260507013449 | 59 | 20 | 4.0 | 4.0 | 0.00 | 0.23 | 0.23 | 98 | 1005.8 |
| 20260507012947 | 59 | 263 | 2.0 | 4.0 | 0.00 | 0.23 | 0.23 | 98 | 1005.8 |
| 20260507012444 | 59 | 187 | 0.0 | 4.0 | 0.00 | 0.23 | 0.23 | 98 | 1006.1 |
| 20260507011940 | 59 | 123 | 2.0 | 3.0 | 0.00 | 0.23 | 0.23 | 98 | 1005.9 |
| 20260507011437 | 59 | 209 | 0.0 | 1.0 | 0.00 | 0.23 | 0.23 | 98 | 1006.1 |
| 20260507010932 | 59 | 186 | 4.0 | 6.0 | 0.00 | 0.23 | 0.23 | 98 | 1006.0 |
| 20260507010427 | 59 | 182 | 1.0 | 4.0 | 0.00 | 0.23 | 0.23 | 98 | 1006.1 |
| 20260507005924 | 59 | 176 | 4.0 | 4.0 | 0.00 | 0.23 | 0.23 | 98 | 1006.1 |
| 20260507005422 | 59 | 159 | 0.0 | 2.0 | 0.00 | 0.23 | 0.23 | 98 | 1006.2 |
| 20260507004918 | 59 | 202 | 3.0 | 7.0 | 0.00 | 0.23 | 0.23 | 98 | 1006.0 |
| 20260507004415 | 59 | 167 | 4.0 | 6.0 | 0.00 | 0.23 | 0.23 | 98 | 1005.9 |
| 20260507003912 | 59 | 200 | 1.0 | 3.0 | 0.00 | 0.23 | 0.23 | 98 | 1006.0 |
| 20260507003407 | 59 | 197 | 0.0 | 2.0 | 0.00 | 0.23 | 0.23 | 98 | 1006.0 |
| 20260507002903 | 59 | 92 | 1.0 | 2.0 | 0.00 | 0.23 | 0.23 | 98 | 1005.8 |
| 20260507002359 | 59 | 182 | 1.0 | 6.0 | 0.00 | 0.23 | 0.23 | 98 | 1005.9 |
| 20260507001856 | 59 | 169 | 1.0 | 6.0 | 0.00 | 0.23 | 0.23 | 98 | 1005.8 |
| 20260507001353 | 59 | 208 | 4.0 | 11.0 | 0.00 | 0.23 | 0.23 | 98 | 1005.7 |
| 20260507000850 | 59 | 185 | 5.0 | 7.0 | 0.00 | 0.23 | 0.23 | 98 | 1005.6 |
| 20260507000345 | 59 | 157 | 1.0 | 8.0 | 0.00 | 0.23 | 0.23 | 98 | 1005.5 |
| 20260506235842 | 59 | 215 | 1.0 | 3.0 | 0.07 | 0.23 | 0.23 | 98 | 1005.5 |
| 20260506235338 | 59 | 132 | 0.0 | 3.0 | 0.07 | 0.23 | 0.23 | 98 | 1005.7 |
| 20260506234829 | 59 | 212 | 4.0 | 7.0 | 0.00 | 0.22 | 0.22 | 98 | 1005.8 |
| 20260506234327 | 59 | 228 | 2.0 | 6.0 | 0.00 | 0.22 | 0.22 | 97 | 1005.6 |
| 20260506233824 | 59 | 232 | 5.0 | 6.0 | 0.07 | 0.22 | 0.22 | 97 | 1005.7 |
| 20260506233320 | 59 | 234 | 1.0 | 2.0 | 0.19 | 0.22 | 0.22 | 97 | 1005.7 |
| 20260506232817 | 59 | 211 | 3.0 | 6.0 | 0.24 | 0.21 | 0.21 | 97 | 1005.6 |
| 20260506232312 | 59 | 127 | 1.0 | 4.0 | 0.12 | 0.18 | 0.18 | 97 | 1005.9 |
| 20260506231809 | 59 | 199 | 3.0 | 3.0 | 0.05 | 0.17 | 0.17 | 97 | 1005.8 |
| 20260506231307 | 60 | 148 | 0.0 | 1.0 | 0.00 | 0.16 | 0.16 | 97 | 1005.7 |
| 20260506230805 | 60 | 191 | 0.0 | 0.0 | 0.00 | 0.16 | 0.16 | 97 | 1006.0 |
| 20260506230301 | 60 | 188 | 1.0 | 6.0 | 0.00 | 0.16 | 0.16 | 97 | 1006.0 |
| 20260506225757 | 60 | 193 | 0.0 | 3.0 | 0.00 | 0.16 | 0.16 | 97 | 1006.0 |
| 20260506225254 | 60 | 216 | 0.0 | 3.0 | 0.00 | 0.16 | 0.16 | 97 | 1006.0 |
| 20260506224745 | 60 | 208 | 1.0 | 6.0 | 0.00 | 0.16 | 0.16 | 97 | 1005.9 |
| 20260506224243 | 60 | 195 | 2.0 | 10.0 | 0.00 | 0.16 | 0.16 | 96 | 1005.9 |
| 20260506223738 | 60 | 190 | 3.0 | 8.0 | 0.07 | 0.16 | 0.16 | 96 | 1005.7 |
| 20260506223234 | 60 | 200 | 0.0 | 7.0 | 0.12 | 0.16 | 0.16 | 96 | 1006.0 |
| 20260506222731 | 60 | 99 | 1.0 | 3.0 | 0.05 | 0.15 | 0.15 | 96 | 1006.0 |
| 20260506222227 | 60 | 190 | 1.0 | 8.0 | 0.00 | 0.14 | 0.14 | 95 | 1006.0 |
| 20260506221725 | 60 | 208 | 5.0 | 7.0 | 0.00 | 0.14 | 0.14 | 95 | 1006.1 |
| 20260506221223 | 60 | 185 | 1.0 | 8.0 | 0.00 | 0.14 | 0.14 | 95 | 1006.1 |
| 20260506220720 | 60 | 197 | 7.0 | 10.0 | 0.00 | 0.14 | 0.14 | 96 | 1006.0 |
| 20260506220214 | 60 | 188 | 7.0 | 9.0 | 0.00 | 0.14 | 0.14 | 96 | 1006.1 |
| 20260506215711 | 60 | 203 | 1.0 | 3.0 | 0.00 | 0.14 | 0.14 | 96 | 1006.1 |
| 20260506215207 | 60 | 235 | 6.0 | 7.0 | 0.00 | 0.14 | 0.14 | 96 | 1006.5 |
| 20260506214704 | 60 | 219 | 3.0 | 8.0 | 0.00 | 0.14 | 0.14 | 96 | 1006.2 |
| 20260506214201 | 60 | 214 | 4.0 | 4.0 | 0.07 | 0.14 | 0.14 | 96 | 1006.4 |
| 20260506213700 | 60 | 204 | 2.0 | 4.0 | 0.07 | 0.14 | 0.14 | 96 | 1006.4 |
| 20260506213156 | 60 | 68 | 0.0 | 7.0 | 0.00 | 0.13 | 0.13 | 96 | 1006.7 |
| 20260506212653 | 60 | 160 | 4.0 | 4.0 | 0.00 | 0.13 | 0.13 | 96 | 1006.6 |
| 20260506212148 | 60 | 341 | 2.0 | 2.0 | 0.05 | 0.13 | 0.13 | 96 | 1006.6 |
| 20260506211644 | 60 | 234 | 3.0 | 4.0 | 0.00 | 0.12 | 0.12 | 95 | 1006.7 |
| 20260506211141 | 60 | 223 | 1.0 | 7.0 | 0.07 | 0.12 | 0.12 | 95 | 1006.7 |
| 20260506210638 | 60 | 166 | 0.0 | 2.0 | 0.07 | 0.12 | 0.12 | 95 | 1006.9 |
| 20260506210134 | 60 | 202 | 4.0 | 9.0 | 0.05 | 0.11 | 0.11 | 94 | 1006.8 |
| 20260506205632 | 60 | 185 | 0.0 | 9.0 | 0.12 | 0.11 | 0.11 | 94 | 1006.8 |
| 20260506205126 | 60 | 156 | 2.0 | 7.0 | 0.14 | 0.10 | 0.10 | 94 | 1006.9 |
| 20260506204625 | 61 | 172 | 1.0 | 2.0 | 0.12 | 0.09 | 0.09 | 94 | 1007.1 |
| 20260506204121 | 61 | 194 | 1.0 | 6.0 | 0.05 | 0.08 | 0.08 | 94 | 1007.0 |
| 20260506203620 | 61 | 227 | 2.0 | 8.0 | 0.07 | 0.07 | 0.07 | 93 | 1006.8 |
| 20260506203116 | 62 | 146 | 0.0 | 1.0 | 0.12 | 0.07 | 0.07 | 92 | 1006.9 |
| 20260506202614 | 62 | 173 | 4.0 | 9.0 | 0.12 | 0.06 | 0.06 | 91 | 1006.9 |
| 20260506202110 | 62 | 136 | 0.0 | 3.0 | 0.07 | 0.05 | 0.05 | 91 | 1006.8 |